createdAt,value
2019-04-09T00:00:03.966Z,9.8
2019-04-09T00:00:53.073Z,9.8
2019-04-09T00:01:42.946Z,9.8
2019-04-09T00:02:33.838Z,9.8
2019-04-09T00:03:23.150Z,9.8
2019-04-09T00:04:12.714Z,9.8
2019-04-09T00:05:03.072Z,9.8
2019-04-09T00:05:53.233Z,9.8
2019-04-09T00:06:42.840Z,9.8
2019-04-09T00:07:32.247Z,9.8
2019-04-09T00:08:23.617Z,9.8
2019-04-09T00:09:13.350Z,9.8
2019-04-09T00:10:02.797Z,9.8
2019-04-09T00:10:52.631Z,9.8
2019-04-09T00:11:42.737Z,9.8
2019-04-09T00:12:33.184Z,9.8
2019-04-09T00:13:22.930Z,9.8
2019-04-09T00:14:13.025Z,9.8
2019-04-09T00:15:03.107Z,9.8
2019-04-09T00:15:52.859Z,9.8
2019-04-09T00:16:43.752Z,9.8
2019-04-09T00:17:34.225Z,9.8
2019-04-09T00:18:23.335Z,9.8
2019-04-09T00:19:13.102Z,9.8
2019-04-09T00:20:04.458Z,9.8
2019-04-09T00:20:55.492Z,9.8
2019-04-09T00:21:44.612Z,9.8
2019-04-09T00:22:34.922Z,9.8
2019-04-09T00:23:24.484Z,9.8
2019-04-09T00:24:15.049Z,9.8
2019-04-09T00:25:04.887Z,9.8
2019-04-09T00:25:55.866Z,9.8
2019-04-09T00:26:57.944Z,9.8
2019-04-09T00:27:34.683Z,9.8
2019-04-09T00:28:23.770Z,9.8
2019-04-09T00:29:14.776Z,9.8
2019-04-09T00:30:05.087Z,9.8
2019-04-09T00:30:54.809Z,9.8
2019-04-09T00:31:45.204Z,9.8
2019-04-09T00:32:35.174Z,9.8
2019-04-09T00:33:26.589Z,9.8
2019-04-09T00:34:15.451Z,9.8
2019-04-09T00:35:04.930Z,9.8
2019-04-09T00:35:54.974Z,9.8
2019-04-09T00:36:46.374Z,9.8
2019-04-09T00:37:35.749Z,9.8
2019-04-09T00:38:25.561Z,9.8
2019-04-09T00:39:15.530Z,9.8
2019-04-09T00:40:06.208Z,9.8
2019-04-09T00:40:55.881Z,9.8
2019-04-09T00:41:46.761Z,9.8
2019-04-09T00:42:36.254Z,9.8
2019-04-09T00:43:25.810Z,9.8
2019-04-09T00:44:15.345Z,9.8
2019-04-09T00:45:06.421Z,9.8
2019-04-09T00:45:55.946Z,9.8
2019-04-09T00:46:49.914Z,9.8
2019-04-09T00:47:36.340Z,9.8
2019-04-09T00:48:25.606Z,9.8
2019-04-09T00:49:15.578Z,9.8
2019-04-09T00:50:06.928Z,9.8
2019-04-09T00:50:57.663Z,9.8
2019-04-09T00:51:45.831Z,9.8
2019-04-09T00:52:36.885Z,9.8
2019-04-09T00:53:28.097Z,9.8
2019-04-09T00:54:17.500Z,9.8
2019-04-09T00:55:06.700Z,9.8
2019-04-09T00:55:56.781Z,9.8
2019-04-09T00:57:10.796Z,9.8
2019-04-09T00:57:37.300Z,9.8
2019-04-09T00:58:27.862Z,9.8
2019-04-09T00:59:17.315Z,9.8
2019-04-09T01:00:08.419Z,9.8
2019-04-09T01:00:57.222Z,9.8
2019-04-09T01:01:47.085Z,9.8
2019-04-09T01:02:37.747Z,9.8
2019-04-09T01:03:27.597Z,9.8
2019-04-09T01:04:16.460Z,9.8
2019-04-09T01:05:06.850Z,9.8
2019-04-09T01:05:56.258Z,9.8
2019-04-09T01:06:47.914Z,9.8
2019-04-09T01:07:37.972Z,9.8
2019-04-09T01:08:27.784Z,9.8
2019-04-09T01:09:18.808Z,9.8
2019-04-09T01:10:07.837Z,9.8
2019-04-09T01:10:59.031Z,9.8
2019-04-09T01:11:48.351Z,9.8
2019-04-09T01:12:38.984Z,9.8
2019-04-09T01:13:28.803Z,9.7
2019-04-09T01:14:19.716Z,9.8
2019-04-09T01:15:08.627Z,9.8
2019-04-09T01:15:59.931Z,9.8
2019-04-09T01:16:49.044Z,9.8
2019-04-09T01:17:38.341Z,9.7
2019-04-09T01:18:29.355Z,9.7
2019-04-09T01:19:26.123Z,9.7
2019-04-09T01:20:09.128Z,9.8
2019-04-09T01:20:58.914Z,9.7
2019-04-09T01:21:50.110Z,9.7
2019-04-09T01:22:39.743Z,9.7
2019-04-09T01:23:28.603Z,9.7
2019-04-09T01:24:41.745Z,9.7
2019-04-09T01:25:10.088Z,9.7
2019-04-09T01:26:00.040Z,9.7
2019-04-09T01:26:49.589Z,9.7
2019-04-09T01:27:39.898Z,9.7
2019-04-09T01:28:29.418Z,9.7
2019-04-09T01:29:20.616Z,9.7
2019-04-09T01:30:10.089Z,9.7
2019-04-09T01:31:01.006Z,9.7
2019-04-09T01:31:50.303Z,9.7
2019-04-09T01:32:40.113Z,9.7
2019-04-09T01:33:30.177Z,9.7
2019-04-09T01:34:20.785Z,9.7
2019-04-09T01:35:09.727Z,9.7
2019-04-09T01:35:59.843Z,9.7
2019-04-09T01:36:50.563Z,9.7
2019-04-09T01:37:39.883Z,9.7
2019-04-09T01:38:30.532Z,9.7
2019-04-09T01:39:20.620Z,9.7
2019-04-09T01:40:10.401Z,9.7
2019-04-09T01:41:00.002Z,9.7
2019-04-09T01:41:49.764Z,9.7
2019-04-09T01:42:39.502Z,9.7
2019-04-09T01:43:30.168Z,9.7
2019-04-09T01:44:21.145Z,9.7
2019-04-09T01:45:10.679Z,9.7
2019-04-09T01:46:00.829Z,9.7
2019-04-09T01:46:51.814Z,9.6
2019-04-09T01:47:41.085Z,9.7
2019-04-09T01:48:30.597Z,9.6
2019-04-09T01:49:20.676Z,9.6
2019-04-09T01:50:10.012Z,9.7
2019-04-09T01:51:00.103Z,9.6
2019-04-09T01:51:49.759Z,9.6
2019-04-09T01:52:41.037Z,9.7
2019-04-09T01:53:31.022Z,9.6
2019-04-09T01:54:22.053Z,9.7
2019-04-09T01:55:10.941Z,9.6
2019-04-09T01:56:01.047Z,9.6
2019-04-09T01:56:51.714Z,9.6
2019-04-09T01:57:42.201Z,9.6
2019-04-09T01:58:30.971Z,9.6
2019-04-09T01:59:22.390Z,9.6
2019-04-09T02:00:12.197Z,9.6
2019-04-09T02:01:01.617Z,9.6
2019-04-09T02:01:52.615Z,9.6
2019-04-09T02:02:40.924Z,9.6
2019-04-09T02:03:31.627Z,9.6
2019-04-09T02:04:22.751Z,9.6
2019-04-09T02:05:11.810Z,9.6
2019-04-09T02:06:03.161Z,9.6
2019-04-09T02:06:52.289Z,9.6
2019-04-09T02:07:42.980Z,9.6
2019-04-09T02:08:32.936Z,9.6
2019-04-09T02:09:22.406Z,9.6
2019-04-09T02:10:12.416Z,9.6
2019-04-09T02:11:01.463Z,9.6
2019-04-09T02:11:51.371Z,9.6
2019-04-09T02:12:42.600Z,9.6
2019-04-09T02:13:32.566Z,9.6
2019-04-09T02:14:23.481Z,9.6
2019-04-09T02:15:12.744Z,9.6
2019-04-09T02:16:03.884Z,9.6
2019-04-09T02:16:53.100Z,9.6
2019-04-09T02:17:42.489Z,9.6
2019-04-09T02:18:32.775Z,9.6
2019-04-09T02:19:22.790Z,9.6
2019-04-09T02:20:12.155Z,9.6
2019-04-09T02:21:02.287Z,9.6
2019-04-09T02:21:53.316Z,9.6
2019-04-09T02:22:43.280Z,9.6
2019-04-09T02:23:34.137Z,9.6
2019-04-09T02:24:23.240Z,9.6
2019-04-09T02:25:14.515Z,9.6
2019-04-09T02:26:04.462Z,9.6
2019-04-09T02:26:53.213Z,9.6
2019-04-09T02:27:50.561Z,9.6
2019-04-09T02:28:33.729Z,9.6
2019-04-09T02:29:23.732Z,9.6
2019-04-09T02:30:18.829Z,9.6
2019-04-09T02:31:06.343Z,9.6
2019-04-09T02:31:57.496Z,9.6
2019-04-09T02:32:46.207Z,9.6
2019-04-09T02:33:35.796Z,9.6
2019-04-09T02:34:27.518Z,9.6
2019-04-09T02:35:16.722Z,9.6
2019-04-09T02:36:07.857Z,9.6
2019-04-09T02:37:00.259Z,9.6
2019-04-09T02:37:49.252Z,9.6
2019-04-09T02:38:34.099Z,9.6
2019-04-09T02:39:24.308Z,9.6
2019-04-09T02:40:14.542Z,9.6
2019-04-09T02:41:05.422Z,9.6
2019-04-09T02:41:54.794Z,9.6
2019-04-09T02:42:46.160Z,9.6
2019-04-09T02:43:34.979Z,9.6
2019-04-09T02:44:25.595Z,9.6
2019-04-09T02:45:14.891Z,9.6
2019-04-09T02:46:06.125Z,9.6
2019-04-09T02:46:55.850Z,9.5
2019-04-09T02:47:45.146Z,9.6
2019-04-09T02:48:34.959Z,9.6
2019-04-09T02:49:24.290Z,9.6
2019-04-09T02:50:14.461Z,9.5
2019-04-09T02:51:05.334Z,9.6
2019-04-09T02:51:56.454Z,9.5
2019-04-09T02:52:46.156Z,9.6
2019-04-09T02:53:34.983Z,9.6
2019-04-09T02:54:25.121Z,9.5
2019-04-09T02:55:16.559Z,9.6
2019-04-09T02:56:05.487Z,9.6
2019-04-09T02:56:55.337Z,9.5
2019-04-09T02:57:59.207Z,9.5
2019-04-09T02:58:36.692Z,9.5
2019-04-09T02:59:24.688Z,9.5
2019-04-09T03:00:15.943Z,9.5
2019-04-09T03:01:06.621Z,9.5
2019-04-09T03:01:56.928Z,9.5
2019-04-09T03:02:46.673Z,9.5
2019-04-09T03:03:36.574Z,9.5
2019-04-09T03:07:06.205Z,9.5
2019-04-09T03:07:57.057Z,9.5
2019-04-09T03:08:47.809Z,9.5
2019-04-09T03:09:37.154Z,9.5
2019-04-09T03:10:26.963Z,9.5
2019-04-09T03:11:17.160Z,9.5
2019-04-09T03:12:06.875Z,9.5
2019-04-09T03:12:56.958Z,9.5
2019-04-09T03:13:46.945Z,9.5
2019-04-09T03:14:36.035Z,9.5
2019-04-09T03:15:26.338Z,9.5
2019-04-09T03:16:17.266Z,9.4
2019-04-09T03:17:07.182Z,9.5
2019-04-09T03:17:57.015Z,9.4
2019-04-09T03:18:48.119Z,9.4
2019-04-09T03:19:36.987Z,9.4
2019-04-09T03:20:28.647Z,9.4
2019-04-09T03:21:17.671Z,9.4
2019-04-09T03:22:07.813Z,9.4
2019-04-09T03:22:57.629Z,9.4
2019-04-09T03:23:46.715Z,9.4
2019-04-09T03:24:37.331Z,9.4
2019-04-09T03:25:27.004Z,9.4
2019-04-09T03:26:18.244Z,9.4
2019-04-09T03:27:07.913Z,9.4
2019-04-09T03:28:16.334Z,9.4
2019-04-09T03:28:47.238Z,9.4
2019-04-09T03:29:37.287Z,9.4
2019-04-09T03:30:30.486Z,9.4
2019-04-09T03:31:24.081Z,9.4
2019-04-09T03:32:07.924Z,9.4
2019-04-09T03:32:59.919Z,9.4
2019-04-09T03:33:49.993Z,9.4
2019-04-09T03:34:39.157Z,9.4
2019-04-09T03:35:29.552Z,9.4
2019-04-09T03:36:19.379Z,9.4
2019-04-09T03:37:11.064Z,9.4
2019-04-09T03:38:00.128Z,9.4
2019-04-09T03:38:49.537Z,9.4
2019-04-09T03:39:40.671Z,9.4
2019-04-09T03:40:29.988Z,9.4
2019-04-09T03:41:20.740Z,9.4
2019-04-09T03:42:10.593Z,9.4
2019-04-09T03:43:00.051Z,9.4
2019-04-09T03:43:50.512Z,9.4
2019-04-09T03:44:39.754Z,9.4
2019-04-09T03:45:31.011Z,9.4
2019-04-09T03:46:22.206Z,9.4
2019-04-09T03:47:10.534Z,9.4
2019-04-09T03:48:00.973Z,9.4
2019-04-09T03:48:52.386Z,9.4
2019-04-09T03:49:40.410Z,9.4
2019-04-09T03:50:30.786Z,9.4
2019-04-09T03:51:21.738Z,9.4
2019-04-09T03:52:10.753Z,9.4
2019-04-09T03:53:00.733Z,9.4
2019-04-09T03:53:50.887Z,9.4
2019-04-09T03:54:40.687Z,9.4
2019-04-09T03:55:29.881Z,9.4
2019-04-09T03:56:19.881Z,9.4
2019-04-09T03:57:09.907Z,9.4
2019-04-09T03:58:24.969Z,9.4
2019-04-09T03:58:50.034Z,9.3
2019-04-09T03:59:41.129Z,9.4
2019-04-09T04:00:31.060Z,9.4
2019-04-09T04:01:22.059Z,9.3
2019-04-09T04:02:11.415Z,9.3
2019-04-09T04:03:01.240Z,9.3
2019-04-09T04:03:51.230Z,9.4
2019-04-09T04:04:41.820Z,9.4
2019-04-09T04:05:32.137Z,9.3
2019-04-09T04:06:22.006Z,9.3
2019-04-09T04:07:11.670Z,9.3
2019-04-09T04:08:01.632Z,9.3
2019-04-09T04:08:50.913Z,9.4
2019-04-09T04:09:41.368Z,9.3
2019-04-09T04:10:30.884Z,9.3
2019-04-09T04:11:20.937Z,9.3
2019-04-09T04:12:11.272Z,9.3
2019-04-09T04:13:02.482Z,9.3
2019-04-09T04:13:52.017Z,9.3
2019-04-09T04:14:42.794Z,9.3
2019-04-09T04:15:32.493Z,9.3
2019-04-09T04:16:21.988Z,9.3
2019-04-09T04:17:12.369Z,9.3
2019-04-09T04:18:03.515Z,9.3
2019-04-09T04:18:52.966Z,9.3
2019-04-09T04:19:42.392Z,9.3
2019-04-09T04:20:33.409Z,9.3
2019-04-09T04:21:23.949Z,9.3
2019-04-09T04:22:15.016Z,9.3
2019-04-09T04:23:02.935Z,9.3
2019-04-09T04:23:53.827Z,9.3
2019-04-09T04:24:43.260Z,9.3
2019-04-09T04:25:32.986Z,9.3
2019-04-09T04:26:24.394Z,9.3
2019-04-09T04:27:13.468Z,9.3
2019-04-09T04:28:03.433Z,9.3
2019-04-09T04:28:54.138Z,9.3
2019-04-09T04:29:44.343Z,9.3
2019-04-09T04:30:34.458Z,9.3
2019-04-09T04:31:23.592Z,9.3
2019-04-09T04:32:13.738Z,9.3
2019-04-09T04:33:04.618Z,9.3
2019-04-09T04:33:54.538Z,9.3
2019-04-09T04:34:43.436Z,9.3
2019-04-09T04:35:33.780Z,9.3
2019-04-09T04:36:25.247Z,9.3
2019-04-09T04:37:14.737Z,9.3
2019-04-09T04:38:06.460Z,9.3
2019-04-09T04:38:54.347Z,9.3
2019-04-09T04:39:43.957Z,9.3
2019-04-09T04:40:35.497Z,9.3
2019-04-09T04:41:24.613Z,9.3
2019-04-09T04:42:14.203Z,9.3
2019-04-09T04:43:04.189Z,9.3
2019-04-09T04:43:53.602Z,9.3
2019-04-09T04:44:44.623Z,9.3
2019-04-09T04:45:34.387Z,9.3
2019-04-09T04:46:24.871Z,9.3
2019-04-09T04:47:15.720Z,9.3
2019-04-09T04:48:05.275Z,9.3
2019-04-09T04:48:56.096Z,9.3
2019-04-09T04:49:45.837Z,9.3
2019-04-09T04:50:35.354Z,9.3
2019-04-09T04:51:24.911Z,9.3
2019-04-09T04:52:14.954Z,9.3
2019-04-09T04:53:04.422Z,9.3
2019-04-09T04:53:55.189Z,9.3
2019-04-09T04:54:44.907Z,9.3
2019-04-09T04:55:35.397Z,9.3
2019-04-09T04:56:25.818Z,9.3
2019-04-09T04:57:15.296Z,9.3
2019-04-09T04:58:06.282Z,9.3
2019-04-09T04:58:56.356Z,9.3
2019-04-09T04:59:46.896Z,9.3
2019-04-09T05:00:35.738Z,9.3
2019-04-09T05:01:26.684Z,9.3
2019-04-09T05:02:17.804Z,9.3
2019-04-09T05:03:06.667Z,9.3
2019-04-09T05:03:55.959Z,9.3
2019-04-09T05:04:46.661Z,9.3
2019-04-09T05:05:36.181Z,9.3
2019-04-09T05:06:25.217Z,9.3
2019-04-09T05:07:15.353Z,9.3
2019-04-09T05:08:05.789Z,9.3
2019-04-09T05:08:55.872Z,9.4
2019-04-09T05:09:45.487Z,9.3
2019-04-09T05:10:36.118Z,9.4
2019-04-09T05:11:26.858Z,9.4
2019-04-09T05:12:17.895Z,9.4
2019-04-09T05:13:06.468Z,9.4
2019-04-09T05:13:57.378Z,9.4
2019-04-09T05:14:47.171Z,9.4
2019-04-09T05:15:36.940Z,9.4
2019-04-09T05:16:25.970Z,9.4
2019-04-09T05:17:16.370Z,9.4
2019-04-09T05:18:07.005Z,9.4
2019-04-09T05:18:57.828Z,9.4
2019-04-09T05:19:46.987Z,9.4
2019-04-09T05:20:37.980Z,9.4
2019-04-09T05:21:28.187Z,9.4
2019-04-09T05:22:17.323Z,9.4
2019-04-09T05:23:07.423Z,9.4
2019-04-09T05:23:58.433Z,9.4
2019-04-09T05:24:47.507Z,9.4
2019-04-09T05:25:37.657Z,9.4
2019-04-09T05:26:28.803Z,9.4
2019-04-09T05:27:17.906Z,9.4
2019-04-09T05:28:07.705Z,9.4
2019-04-09T05:29:11.520Z,9.4
2019-04-09T05:29:49.002Z,9.4
2019-04-09T05:30:38.170Z,9.4
2019-04-09T05:31:28.173Z,9.4
2019-04-09T05:32:17.106Z,9.5
2019-04-09T05:33:07.976Z,9.5
2019-04-09T05:33:59.302Z,9.5
2019-04-09T05:34:48.812Z,9.5
2019-04-09T05:35:38.941Z,9.5
2019-04-09T05:36:28.730Z,9.5
2019-04-09T05:37:17.569Z,9.6
2019-04-09T05:38:07.701Z,9.5
2019-04-09T05:39:00.705Z,9.6
2019-04-09T05:39:48.866Z,9.6
2019-04-09T05:40:39.706Z,9.6
2019-04-09T05:41:28.377Z,9.6
2019-04-09T05:42:19.266Z,9.6
2019-04-09T05:43:09.637Z,9.6
2019-04-09T05:43:59.165Z,9.6
2019-04-09T05:44:49.977Z,9.6
2019-04-09T05:45:40.048Z,9.6
2019-04-09T05:46:30.131Z,9.6
2019-04-09T05:47:19.139Z,9.7
2019-04-09T05:48:09.921Z,9.6
2019-04-09T05:49:00.372Z,9.7
2019-04-09T05:49:49.086Z,9.7
2019-04-09T05:50:39.279Z,9.7
2019-04-09T05:51:29.309Z,9.8
2019-04-09T05:52:18.831Z,9.8
2019-04-09T05:53:09.818Z,9.8
2019-04-09T05:54:00.650Z,9.8
2019-04-09T05:54:50.087Z,9.8
2019-04-09T05:55:39.554Z,9.8
2019-04-09T05:56:30.338Z,9.9
2019-04-09T05:57:19.797Z,9.9
2019-04-09T05:58:10.894Z,9.9
2019-04-09T05:59:13.051Z,9.9
2019-04-09T05:59:49.030Z,9.9
2019-04-09T06:00:39.736Z,10
2019-04-09T06:01:30.293Z,10
2019-04-09T06:02:21.786Z,10.1
2019-04-09T06:03:11.486Z,10.1
2019-04-09T06:05:07.291Z,10.1
2019-04-09T06:05:57.414Z,10.1
2019-04-09T06:06:46.438Z,10.2
2019-04-09T06:07:38.093Z,10.2
2019-04-09T06:08:29.604Z,10.2
2019-04-09T06:09:17.671Z,10.2
2019-04-09T06:10:06.733Z,10.3
2019-04-09T06:10:57.142Z,10.2
2019-04-09T06:11:45.552Z,10.3
2019-04-09T06:12:37.055Z,10.3
2019-04-09T06:13:27.532Z,10.3
2019-04-09T06:14:17.422Z,10.3
2019-04-09T06:15:08.243Z,10.3
2019-04-09T06:15:57.879Z,10.3
2019-04-09T06:16:46.640Z,10.3
2019-04-09T06:17:37.192Z,10.4
2019-04-09T06:18:27.267Z,10.3
2019-04-09T06:19:16.519Z,10.4
2019-04-09T06:20:07.035Z,10.4
2019-04-09T06:20:56.525Z,10.4
2019-04-09T06:21:50.489Z,10.4
2019-04-09T06:22:40.121Z,10.4
2019-04-09T06:23:32.519Z,10.5
2019-04-09T06:24:21.312Z,10.5
2019-04-09T06:25:20.449Z,10.5
2019-04-09T06:26:02.737Z,10.6
2019-04-09T06:26:52.545Z,10.6
2019-04-09T06:27:41.532Z,10.6
2019-04-09T06:28:32.906Z,10.6
2019-04-09T06:29:26.526Z,10.6
2019-04-09T06:30:11.869Z,10.8
2019-04-09T06:31:02.764Z,10.8
2019-04-09T06:31:52.843Z,10.8
2019-04-09T06:32:43.470Z,10.8
2019-04-09T06:33:32.499Z,10.8
2019-04-09T06:34:23.206Z,10.9
2019-04-09T06:35:12.242Z,10.9
2019-04-09T06:36:02.292Z,10.9
2019-04-09T06:36:52.659Z,10.9
2019-04-09T06:37:42.242Z,11
2019-04-09T06:38:33.489Z,11
2019-04-09T06:39:23.325Z,11.1
2019-04-09T06:40:12.940Z,11.1
2019-04-09T06:41:03.850Z,11.1
2019-04-09T06:41:52.554Z,11.1
2019-04-09T06:42:42.764Z,11.1
2019-04-09T06:43:32.398Z,11.2
2019-04-09T06:44:22.459Z,11.2
2019-04-09T06:45:12.028Z,11.2
2019-04-09T06:46:03.134Z,11.3
2019-04-09T06:46:54.369Z,11.3
2019-04-09T06:47:43.109Z,11.3
2019-04-09T06:48:33.811Z,11.3
2019-04-09T06:49:23.234Z,11.3
2019-04-09T06:50:13.061Z,11.3
2019-04-09T06:51:02.806Z,11.3
2019-04-09T06:52:02.621Z,11.4
2019-04-09T06:52:46.616Z,11.3
2019-04-09T06:53:37.390Z,11.4
2019-04-09T06:54:28.271Z,11.3
2019-04-09T06:55:17.292Z,11.4
2019-04-09T06:56:09.300Z,11.4
2019-04-09T06:57:01.169Z,11.4
2019-04-09T06:57:48.119Z,11.4
2019-04-09T06:58:39.136Z,11.4
2019-04-09T06:59:39.902Z,11.4
2019-04-09T07:00:24.850Z,11.4
2019-04-09T07:01:09.191Z,11.4
2019-04-09T07:01:59.471Z,11.4
2019-04-09T07:02:49.481Z,11.4
2019-04-09T07:05:07.398Z,11.4
2019-04-09T07:05:59.603Z,11.4
2019-04-09T07:06:47.006Z,11.4
2019-04-09T07:07:36.778Z,11.4
2019-04-09T07:08:27.093Z,11.4
2019-04-09T07:09:19.477Z,11.4
2019-04-09T07:10:08.105Z,11.5
2019-04-09T07:11:19.769Z,11.5
2019-04-09T07:11:47.313Z,11.5
2019-04-09T07:12:36.647Z,11.5
2019-04-09T07:13:27.848Z,11.5
2019-04-09T07:14:18.081Z,11.5
2019-04-09T07:15:07.611Z,11.6
2019-04-09T07:15:57.443Z,11.6
2019-04-09T07:16:47.155Z,11.6
2019-04-09T07:17:38.218Z,11.6
2019-04-09T07:18:27.666Z,11.6
2019-04-09T07:19:17.400Z,11.6
2019-04-09T07:20:07.503Z,11.6
2019-04-09T07:20:57.259Z,11.6
2019-04-09T07:21:48.629Z,11.6
2019-04-09T07:22:44.056Z,11.6
2019-04-09T07:23:28.518Z,11.6
2019-04-09T07:24:18.675Z,11.7
2019-04-09T07:25:08.230Z,11.7
2019-04-09T07:25:59.004Z,11.7
2019-04-09T07:26:52.850Z,11.7
2019-04-09T07:27:37.789Z,11.8
2019-04-09T07:28:29.451Z,11.8
2019-04-09T07:29:18.154Z,11.8
2019-04-09T07:30:33.213Z,11.8
2019-04-09T07:31:28.912Z,11.8
2019-04-09T07:32:13.584Z,11.8
2019-04-09T07:33:12.083Z,11.9
2019-04-09T07:33:53.577Z,11.9
2019-04-09T07:34:45.996Z,11.9
2019-04-09T07:35:37.893Z,11.9
2019-04-09T07:36:23.924Z,11.9
2019-04-09T07:37:16.662Z,12
2019-04-09T07:38:04.088Z,12
2019-04-09T07:38:59.569Z,12.1
2019-04-09T07:39:44.271Z,12.1
2019-04-09T07:40:39.986Z,12.1
2019-04-09T07:41:27.368Z,12.2
2019-04-09T07:42:18.207Z,12.2
2019-04-09T07:43:09.866Z,12.3
2019-04-09T07:44:05.508Z,12.3
2019-04-09T07:44:45.583Z,12.4
2019-04-09T07:45:43.249Z,12.4
2019-04-09T07:46:24.428Z,12.5
2019-04-09T07:47:24.664Z,12.5
2019-04-09T07:48:04.538Z,12.6
2019-04-09T07:48:53.953Z,12.6
2019-04-09T07:49:45.158Z,12.7
2019-04-09T07:50:35.695Z,12.7
2019-04-09T07:51:24.803Z,12.8
2019-04-09T07:52:16.190Z,12.8
2019-04-09T07:53:04.870Z,12.8
2019-04-09T07:53:55.022Z,12.8
2019-04-09T07:54:53.013Z,12.9
2019-04-09T07:55:35.488Z,12.9
2019-04-09T07:56:32.789Z,12.9
2019-04-09T07:57:15.685Z,12.9
2019-04-09T07:58:12.638Z,12.9
2019-04-09T07:58:55.792Z,13
2019-04-09T08:00:17.297Z,13
2019-04-09T08:00:57.900Z,13
2019-04-09T08:01:51.458Z,13.1
2019-04-09T08:02:37.066Z,13.1
2019-04-09T08:03:34.311Z,13.1
2019-04-09T08:04:22.007Z,13.1
2019-04-09T08:05:13.966Z,13.1
2019-04-09T08:06:00.607Z,13.1
2019-04-09T08:06:54.024Z,13.2
2019-04-09T08:07:39.322Z,13.2
2019-04-09T08:08:34.595Z,13.3
2019-04-09T08:09:19.780Z,13.3
2019-04-09T08:10:08.663Z,13.3
2019-04-09T08:11:07.496Z,13.3
2019-04-09T08:11:48.800Z,13.3
2019-04-09T08:12:50.388Z,13.3
2019-04-09T08:13:35.251Z,13.4
2019-04-09T08:14:24.561Z,13.4
2019-04-09T08:15:10.122Z,13.4
2019-04-09T08:16:00.415Z,13.4
2019-04-09T08:16:49.081Z,13.4
2019-04-09T08:18:08.090Z,13.4
2019-04-09T08:18:40.583Z,13.4
2019-04-09T08:19:30.710Z,13.4
2019-04-09T08:20:34.322Z,13.4
2019-04-09T08:21:10.990Z,13.4
2019-04-09T08:22:01.771Z,13.4
2019-04-09T08:22:53.584Z,13.4
2019-04-09T08:23:42.138Z,13.4
2019-04-09T08:24:30.735Z,13.4
2019-04-09T08:25:21.379Z,13.4
2019-04-09T08:26:11.098Z,13.4
2019-04-09T08:27:02.110Z,13.4
2019-04-09T08:27:51.492Z,13.4
2019-04-09T08:28:42.279Z,13.5
2019-04-09T08:29:31.664Z,13.4
2019-04-09T08:30:45.584Z,13.5
2019-04-09T08:31:22.356Z,13.5
2019-04-09T08:32:22.944Z,13.5
2019-04-09T08:32:53.660Z,13.6
2019-04-09T08:33:42.973Z,13.6
2019-04-09T08:34:38.617Z,13.6
2019-04-09T08:35:22.814Z,13.6
2019-04-09T08:36:18.527Z,13.6
2019-04-09T08:37:02.994Z,13.6
2019-04-09T08:38:01.160Z,13.6
2019-04-09T08:38:43.485Z,13.6
2019-04-09T08:39:42.886Z,13.6
2019-04-09T08:40:24.186Z,13.6
2019-04-09T08:41:13.308Z,13.6
2019-04-09T08:42:02.836Z,13.6
2019-04-09T08:42:53.047Z,13.6
2019-04-09T08:43:43.067Z,13.6
2019-04-09T08:44:33.938Z,13.7
2019-04-09T08:45:26.539Z,13.7
2019-04-09T08:46:14.164Z,13.7
2019-04-09T08:47:07.014Z,13.8
2019-04-09T08:47:55.366Z,13.8
2019-04-09T08:48:49.281Z,13.9
2019-04-09T08:49:33.855Z,14
2019-04-09T08:50:32.626Z,14.2
2019-04-09T08:51:14.625Z,14.3
2019-04-09T08:52:07.910Z,14.5
2019-04-09T08:52:54.173Z,14.6
2019-04-09T08:53:51.325Z,14.8
2019-04-09T08:54:35.595Z,15
2019-04-09T08:55:26.707Z,15.2
2019-04-09T08:56:15.774Z,15.4
2019-04-09T08:57:04.670Z,15.4
2019-04-09T08:57:54.375Z,15.6
2019-04-09T08:58:45.806Z,15.7
2019-04-09T08:59:36.532Z,15.8
2019-04-09T09:02:15.377Z,15.9
2019-04-09T09:03:09.170Z,16.3
2019-04-09T09:04:29.619Z,16.4
2019-04-09T09:06:22.178Z,16.7
2019-04-09T09:07:12.675Z,16.8
2019-04-09T09:08:09.576Z,16.9
2019-04-09T09:09:50.937Z,17.1
2019-04-09T09:10:29.489Z,17.3
2019-04-09T09:11:20.174Z,17.3
2019-04-09T09:12:11.149Z,17.4
2019-04-09T09:12:58.574Z,17.4
2019-04-09T09:13:48.979Z,17.5
2019-04-09T09:14:38.417Z,17.5
2019-04-09T09:15:29.088Z,17.5
2019-04-09T09:16:19.031Z,17.5
2019-04-09T09:17:12.507Z,17.5
2019-04-09T09:17:59.783Z,17.5
2019-04-09T09:18:56.759Z,17.4
2019-04-09T09:19:40.771Z,17.4
2019-04-09T09:20:35.265Z,17.4
2019-04-09T09:21:44.091Z,17.3
2019-04-09T09:22:30.050Z,17.3
2019-04-09T09:23:18.039Z,17.3
2019-04-09T09:24:08.228Z,17.3
2019-04-09T09:24:58.202Z,17.2
2019-04-09T09:25:47.985Z,17.2
2019-04-09T09:26:40.621Z,17.1
2019-04-09T09:27:28.663Z,17.1
2019-04-09T09:28:18.439Z,17.1
2019-04-09T09:31:51.651Z,16.9
2019-04-09T09:32:41.652Z,16.9
2019-04-09T09:33:48.146Z,16.9
2019-04-09T09:34:27.357Z,16.9
2019-04-09T09:35:11.961Z,16.9
2019-04-09T09:36:11.936Z,16.9
2019-04-09T09:36:52.266Z,16.9
2019-04-09T09:37:53.793Z,16.9
2019-04-09T09:38:34.022Z,16.9
2019-04-09T09:39:36.857Z,16.9
2019-04-09T09:40:13.938Z,16.9
2019-04-09T09:41:08.971Z,16.9
2019-04-09T09:41:52.759Z,16.9
2019-04-09T09:42:42.520Z,16.9
2019-04-09T09:44:26.878Z,17.1
2019-04-09T09:45:12.962Z,17.2
2019-04-09T09:46:06.752Z,17.3
2019-04-09T09:46:56.390Z,17.3
2019-04-09T09:47:51.598Z,17.4
2019-04-09T09:48:33.548Z,17.6
2019-04-09T09:49:24.132Z,17.7
2019-04-09T09:50:22.309Z,17.8
2019-04-09T09:51:03.366Z,18.1
2019-04-09T09:51:52.830Z,18.2
2019-04-09T09:52:42.232Z,18.4
2019-04-09T09:53:35.432Z,18.6
2019-04-09T09:55:22.526Z,18.9
2019-04-09T09:56:08.129Z,19
2019-04-09T09:56:53.940Z,19.1
2019-04-09T09:57:47.900Z,19.2
2019-04-09T09:58:33.757Z,19.3
2019-04-09T09:59:35.349Z,19.3
2019-04-09T10:00:15.798Z,19.4
2019-04-09T10:01:29.688Z,19.4
2019-04-09T10:02:17.975Z,19.4
2019-04-09T10:03:13.335Z,19.4
2019-04-09T10:03:59.515Z,19.4
2019-04-09T10:06:27.558Z,19.4
2019-04-09T10:06:58.755Z,19.3
2019-04-09T10:08:14.955Z,19.3
2019-04-09T10:08:42.373Z,19.3
2019-04-09T10:09:33.833Z,19.3
2019-04-09T10:10:28.636Z,19.2
2019-04-09T10:11:13.691Z,19.1
2019-04-09T10:12:13.054Z,19.1
2019-04-09T10:13:13.254Z,19
2019-04-09T10:14:02.171Z,19
2019-04-09T10:14:52.872Z,18.9
2019-04-09T10:15:47.324Z,18.8
2019-04-09T10:16:40.061Z,18.8
2019-04-09T10:17:42.347Z,18.8
2019-04-09T10:20:01.798Z,18.6
2019-04-09T10:20:50.322Z,18.6
2019-04-09T10:21:37.641Z,18.5
2019-04-09T10:22:28.905Z,18.4
2019-04-09T10:23:20.075Z,18.4
2019-04-09T10:24:35.805Z,18.3
2019-04-09T10:25:04.045Z,18.3
2019-04-09T10:25:52.547Z,18.3
2019-04-09T10:26:43.920Z,18.2
2019-04-09T10:27:33.068Z,18.2
2019-04-09T10:28:32.707Z,18.1
2019-04-09T10:29:17.786Z,18.1
2019-04-09T10:30:12.057Z,18
2019-04-09T10:30:53.213Z,18
2019-04-09T10:31:58.570Z,17.9
2019-04-09T10:32:48.707Z,17.9
2019-04-09T10:33:37.025Z,17.9
2019-04-09T10:34:30.175Z,17.8
2019-04-09T10:35:17.668Z,17.8
2019-04-09T10:36:09.352Z,17.8
2019-04-09T10:36:57.689Z,17.8
2019-04-09T10:37:54.226Z,17.8
2019-04-09T10:38:37.322Z,17.8
2019-04-09T10:39:41.016Z,17.8
2019-04-09T10:40:23.587Z,17.8
2019-04-09T10:41:48.164Z,17.8
2019-04-09T10:42:21.681Z,17.8
2019-04-09T10:43:17.176Z,17.8
2019-04-09T10:43:59.567Z,17.8
2019-04-09T10:44:53.045Z,17.8
2019-04-09T10:45:39.497Z,17.7
2019-04-09T10:46:38.664Z,17.7
2019-04-09T10:47:20.834Z,17.7
2019-04-09T10:48:14.916Z,17.7
2019-04-09T10:49:04.369Z,17.7
2019-04-09T10:49:57.972Z,17.7
2019-04-09T10:50:46.054Z,17.7
2019-04-09T10:51:29.924Z,17.8
2019-04-09T10:52:29.243Z,17.8
2019-04-09T10:53:11.246Z,17.8
2019-04-09T10:54:08.811Z,17.8
2019-04-09T10:54:52.251Z,17.8
2019-04-09T10:55:41.683Z,17.8
2019-04-09T10:56:36.473Z,17.8
2019-04-09T10:57:20.946Z,17.9
2019-04-09T10:58:27.328Z,17.9
2019-04-09T10:59:01.296Z,17.9
2019-04-09T10:59:51.123Z,17.9
2019-04-09T11:00:44.674Z,17.9
2019-04-09T11:01:54.918Z,17.9
2019-04-09T11:02:34.876Z,17.9
2019-04-09T11:03:12.312Z,17.9
2019-04-09T11:04:01.732Z,17.9
2019-04-09T11:04:51.921Z,17.9
2019-04-09T11:05:42.263Z,17.9
2019-04-09T11:06:31.105Z,17.9
2019-04-09T11:07:31.868Z,17.9
2019-04-09T11:08:11.152Z,17.9
2019-04-09T11:09:01.526Z,17.9
2019-04-09T11:09:51.275Z,17.9
2019-04-09T11:10:47.172Z,17.9
2019-04-09T11:11:37.563Z,17.9
2019-04-09T11:12:31.116Z,18
2019-04-09T11:13:17.016Z,18
2019-04-09T11:14:12.573Z,18
2019-04-09T11:14:56.959Z,18.1
2019-04-09T11:16:00.439Z,18.1
2019-04-09T11:16:36.397Z,18.2
2019-04-09T11:17:35.140Z,18.3
2019-04-09T11:18:23.119Z,18.3
2019-04-09T11:19:08.174Z,18.4
2019-04-09T11:20:02.555Z,18.4
2019-04-09T11:20:47.125Z,18.5
2019-04-09T11:21:45.782Z,18.6
2019-04-09T11:22:28.136Z,18.6
2019-04-09T11:23:24.795Z,18.6
2019-04-09T11:24:07.798Z,18.6
2019-04-09T11:25:06.099Z,18.6
2019-04-09T11:25:47.956Z,18.6
2019-04-09T11:26:41.794Z,18.6
2019-04-09T11:27:29.104Z,18.6
2019-04-09T11:28:16.354Z,18.6
2019-04-09T11:29:06.404Z,18.5
2019-04-09T11:29:57.822Z,18.4
2019-04-09T11:30:48.572Z,18.4
2019-04-09T11:32:08.538Z,18.4
2019-04-09T11:32:30.337Z,18.3
2019-04-09T11:33:20.929Z,18.3
2019-04-09T11:34:11.575Z,18.3
2019-04-09T11:35:00.762Z,18.1
2019-04-09T11:35:49.911Z,18.1
2019-04-09T11:36:39.626Z,18.1
2019-04-09T11:37:29.451Z,18
2019-04-09T11:38:21.540Z,17.9
2019-04-09T11:39:12.137Z,17.9